sensor_id;sensor_type;location;lat;lon;timestamp;P1;durP1;ratioP1;P2;durP2;ratioP2
10945;SDS011;5525;42.648;23.368;2022-12-07T00:01:27;40.55;;;23.98;;
10945;SDS011;5525;42.648;23.368;2022-12-07T00:03:56;38.78;;;21.83;;
10945;SDS011;5525;42.648;23.368;2022-12-07T00:06:31;38.22;;;22.60;;
10945;SDS011;5525;42.648;23.368;2022-12-07T00:08:59;40.65;;;24.35;;
10945;SDS011;5525;42.648;23.368;2022-12-07T00:11:26;39.35;;;23.60;;
10945;SDS011;5525;42.648;23.368;2022-12-07T00:13:54;28.42;;;18.67;;
10945;SDS011;5525;42.648;23.368;2022-12-07T00:16:24;28.05;;;16.40;;
10945;SDS011;5525;42.648;23.368;2022-12-07T00:18:52;29.23;;;17.50;;
10945;SDS011;5525;42.648;23.368;2022-12-07T00:21:20;28.33;;;16.15;;
10945;SDS011;5525;42.648;23.368;2022-12-07T00:23:50;32.97;;;21.05;;
10945;SDS011;5525;42.648;23.368;2022-12-07T00:26:20;31.20;;;18.13;;
10945;SDS011;5525;42.648;23.368;2022-12-07T00:28:49;31.40;;;19.08;;
10945;SDS011;5525;42.648;23.368;2022-12-07T00:31:18;34.85;;;20.90;;
10945;SDS011;5525;42.648;23.368;2022-12-07T00:33:47;33.75;;;19.75;;
10945;SDS011;5525;42.648;23.368;2022-12-07T00:36:14;36.10;;;21.90;;
10945;SDS011;5525;42.648;23.368;2022-12-07T00:38:43;35.90;;;19.45;;
10945;SDS011;5525;42.648;23.368;2022-12-07T00:41:13;33.30;;;20.35;;
10945;SDS011;5525;42.648;23.368;2022-12-07T00:43:43;38.03;;;21.17;;
10945;SDS011;5525;42.648;23.368;2022-12-07T00:46:11;40.13;;;24.17;;
10945;SDS011;5525;42.648;23.368;2022-12-07T00:48:39;35.88;;;22.30;;
10945;SDS011;5525;42.648;23.368;2022-12-07T00:51:07;36.75;;;22.00;;
10945;SDS011;5525;42.648;23.368;2022-12-07T00:53:34;35.63;;;22.48;;
10945;SDS011;5525;42.648;23.368;2022-12-07T00:56:04;38.65;;;22.77;;
10945;SDS011;5525;42.648;23.368;2022-12-07T00:58:33;35.95;;;22.25;;
10945;SDS011;5525;42.648;23.368;2022-12-07T01:01:01;34.97;;;21.02;;
10945;SDS011;5525;42.648;23.368;2022-12-07T01:03:29;34.13;;;19.45;;
10945;SDS011;5525;42.648;23.368;2022-12-07T01:05:57;34.10;;;21.83;;
10945;SDS011;5525;42.648;23.368;2022-12-07T01:08:25;34.45;;;21.70;;
10945;SDS011;5525;42.648;23.368;2022-12-07T01:10:57;35.63;;;23.23;;
10945;SDS011;5525;42.648;23.368;2022-12-07T01:13:25;47.95;;;28.33;;
10945;SDS011;5525;42.648;23.368;2022-12-07T01:15:57;47.03;;;26.77;;
10945;SDS011;5525;42.648;23.368;2022-12-07T01:18:26;44.47;;;27.17;;
10945;SDS011;5525;42.648;23.368;2022-12-07T01:20:58;46.38;;;28.65;;
10945;SDS011;5525;42.648;23.368;2022-12-07T01:23:27;59.38;;;34.50;;
10945;SDS011;5525;42.648;23.368;2022-12-07T01:25:55;48.25;;;28.90;;
10945;SDS011;5525;42.648;23.368;2022-12-07T01:28:23;42.60;;;26.15;;
10945;SDS011;5525;42.648;23.368;2022-12-07T01:30:59;44.78;;;27.50;;
10945;SDS011;5525;42.648;23.368;2022-12-07T01:33:27;47.00;;;28.92;;
10945;SDS011;5525;42.648;23.368;2022-12-07T01:36:00;45.60;;;28.50;;
10945;SDS011;5525;42.648;23.368;2022-12-07T01:38:29;51.33;;;29.13;;
10945;SDS011;5525;42.648;23.368;2022-12-07T01:40:56;42.95;;;27.25;;
10945;SDS011;5525;42.648;23.368;2022-12-07T01:43:24;44.08;;;25.98;;
10945;SDS011;5525;42.648;23.368;2022-12-07T01:45:56;43.65;;;28.08;;
10945;SDS011;5525;42.648;23.368;2022-12-07T01:48:32;45.95;;;29.70;;
10945;SDS011;5525;42.648;23.368;2022-12-07T01:51:08;44.60;;;26.80;;
10945;SDS011;5525;42.648;23.368;2022-12-07T01:53:38;49.70;;;29.10;;
10945;SDS011;5525;42.648;23.368;2022-12-07T01:56:10;49.20;;;29.05;;
10945;SDS011;5525;42.648;23.368;2022-12-07T01:58:42;47.20;;;28.60;;
10945;SDS011;5525;42.648;23.368;2022-12-07T02:01:12;45.58;;;26.95;;
10945;SDS011;5525;42.648;23.368;2022-12-07T02:03:40;48.67;;;27.92;;
10945;SDS011;5525;42.648;23.368;2022-12-07T02:06:10;47.83;;;27.25;;
10945;SDS011;5525;42.648;23.368;2022-12-07T02:08:40;44.65;;;28.80;;
10945;SDS011;5525;42.648;23.368;2022-12-07T02:11:08;44.00;;;27.95;;
10945;SDS011;5525;42.648;23.368;2022-12-07T02:13:37;44.58;;;26.95;;
10945;SDS011;5525;42.648;23.368;2022-12-07T02:16:09;47.88;;;27.27;;
10945;SDS011;5525;42.648;23.368;2022-12-07T02:18:51;49.30;;;27.05;;
10945;SDS011;5525;42.648;23.368;2022-12-07T02:21:35;49.22;;;29.35;;
10945;SDS011;5525;42.648;23.368;2022-12-07T02:27:14;49.03;;;28.50;;
10945;SDS011;5525;42.648;23.368;2022-12-07T02:30:00;51.15;;;28.15;;
10945;SDS011;5525;42.648;23.368;2022-12-07T02:32:31;45.80;;;27.83;;
10945;SDS011;5525;42.648;23.368;2022-12-07T02:35:07;52.78;;;28.15;;
10945;SDS011;5525;42.648;23.368;2022-12-07T02:37:39;45.58;;;26.88;;
10945;SDS011;5525;42.648;23.368;2022-12-07T02:40:12;45.38;;;27.08;;
10945;SDS011;5525;42.648;23.368;2022-12-07T02:42:46;47.42;;;26.77;;
10945;SDS011;5525;42.648;23.368;2022-12-07T02:45:22;44.25;;;26.77;;
10945;SDS011;5525;42.648;23.368;2022-12-07T02:47:55;40.85;;;26.35;;
10945;SDS011;5525;42.648;23.368;2022-12-07T02:50:27;44.65;;;26.45;;
10945;SDS011;5525;42.648;23.368;2022-12-07T02:52:54;47.38;;;27.27;;
10945;SDS011;5525;42.648;23.368;2022-12-07T02:55:23;46.90;;;27.15;;
10945;SDS011;5525;42.648;23.368;2022-12-07T02:58:05;41.63;;;25.58;;
10945;SDS011;5525;42.648;23.368;2022-12-07T03:00:44;45.42;;;25.65;;
10945;SDS011;5525;42.648;23.368;2022-12-07T03:03:19;43.00;;;25.40;;
10945;SDS011;5525;42.648;23.368;2022-12-07T03:05:50;43.53;;;25.63;;
10945;SDS011;5525;42.648;23.368;2022-12-07T03:08:28;40.40;;;24.05;;
10945;SDS011;5525;42.648;23.368;2022-12-07T03:11:03;43.35;;;24.35;;
10945;SDS011;5525;42.648;23.368;2022-12-07T03:13:33;49.17;;;25.35;;
10945;SDS011;5525;42.648;23.368;2022-12-07T03:16:08;44.67;;;25.65;;
10945;SDS011;5525;42.648;23.368;2022-12-07T03:18:42;42.78;;;25.40;;
10945;SDS011;5525;42.648;23.368;2022-12-07T03:21:17;43.20;;;24.88;;
10945;SDS011;5525;42.648;23.368;2022-12-07T03:23:48;40.83;;;24.98;;
10945;SDS011;5525;42.648;23.368;2022-12-07T03:26:22;42.70;;;24.75;;
10945;SDS011;5525;42.648;23.368;2022-12-07T03:28:58;40.20;;;24.83;;
10945;SDS011;5525;42.648;23.368;2022-12-07T03:31:31;40.85;;;24.27;;
10945;SDS011;5525;42.648;23.368;2022-12-07T03:34:01;41.95;;;24.80;;
10945;SDS011;5525;42.648;23.368;2022-12-07T03:36:35;42.72;;;25.50;;
10945;SDS011;5525;42.648;23.368;2022-12-07T03:39:09;42.42;;;25.98;;
10945;SDS011;5525;42.648;23.368;2022-12-07T03:41:43;40.50;;;25.42;;
10945;SDS011;5525;42.648;23.368;2022-12-07T03:44:11;44.60;;;25.95;;
10945;SDS011;5525;42.648;23.368;2022-12-07T03:46:44;41.33;;;25.92;;
10945;SDS011;5525;42.648;23.368;2022-12-07T03:49:15;46.45;;;26.45;;
10945;SDS011;5525;42.648;23.368;2022-12-07T03:51:50;40.78;;;26.33;;
10945;SDS011;5525;42.648;23.368;2022-12-07T03:54:24;47.00;;;26.63;;
10945;SDS011;5525;42.648;23.368;2022-12-07T03:56:57;44.33;;;26.77;;
10945;SDS011;5525;42.648;23.368;2022-12-07T03:59:25;44.80;;;26.52;;
10945;SDS011;5525;42.648;23.368;2022-12-07T04:01:56;44.63;;;25.95;;
10945;SDS011;5525;42.648;23.368;2022-12-07T04:04:28;41.92;;;26.40;;
10945;SDS011;5525;42.648;23.368;2022-12-07T04:06:56;48.22;;;25.73;;
10945;SDS011;5525;42.648;23.368;2022-12-07T04:09:23;45.35;;;26.58;;
10945;SDS011;5525;42.648;23.368;2022-12-07T04:11:50;41.50;;;24.30;;
10945;SDS011;5525;42.648;23.368;2022-12-07T04:14:17;39.65;;;25.55;;
10945;SDS011;5525;42.648;23.368;2022-12-07T04:16:45;42.50;;;25.83;;
10945;SDS011;5525;42.648;23.368;2022-12-07T04:19:14;41.08;;;25.48;;
10945;SDS011;5525;42.648;23.368;2022-12-07T04:21:42;39.13;;;25.00;;
10945;SDS011;5525;42.648;23.368;2022-12-07T04:24:09;43.83;;;25.35;;
10945;SDS011;5525;42.648;23.368;2022-12-07T04:26:38;48.63;;;26.70;;
10945;SDS011;5525;42.648;23.368;2022-12-07T04:29:06;43.67;;;25.02;;
10945;SDS011;5525;42.648;23.368;2022-12-07T04:31:33;41.55;;;24.88;;
10945;SDS011;5525;42.648;23.368;2022-12-07T04:34:00;39.35;;;25.35;;
10945;SDS011;5525;42.648;23.368;2022-12-07T04:36:29;42.20;;;26.17;;
10945;SDS011;5525;42.648;23.368;2022-12-07T04:38:57;45.25;;;25.52;;
10945;SDS011;5525;42.648;23.368;2022-12-07T04:41:25;43.47;;;26.15;;
10945;SDS011;5525;42.648;23.368;2022-12-07T04:43:55;40.45;;;24.13;;
10945;SDS011;5525;42.648;23.368;2022-12-07T04:46:23;40.33;;;23.67;;
10945;SDS011;5525;42.648;23.368;2022-12-07T04:48:54;39.60;;;24.00;;
10945;SDS011;5525;42.648;23.368;2022-12-07T04:51:23;37.33;;;23.55;;
10945;SDS011;5525;42.648;23.368;2022-12-07T04:53:53;39.83;;;23.08;;
10945;SDS011;5525;42.648;23.368;2022-12-07T04:56:23;40.88;;;24.35;;
10945;SDS011;5525;42.648;23.368;2022-12-07T04:58:51;38.17;;;23.42;;
10945;SDS011;5525;42.648;23.368;2022-12-07T05:01:21;39.60;;;23.88;;
10945;SDS011;5525;42.648;23.368;2022-12-07T05:03:51;38.35;;;21.95;;
10945;SDS011;5525;42.648;23.368;2022-12-07T05:06:18;37.67;;;22.27;;
10945;SDS011;5525;42.648;23.368;2022-12-07T05:08:46;37.40;;;22.75;;
10945;SDS011;5525;42.648;23.368;2022-12-07T05:11:14;40.30;;;22.17;;
10945;SDS011;5525;42.648;23.368;2022-12-07T05:13:55;34.53;;;20.95;;
10945;SDS011;5525;42.648;23.368;2022-12-07T05:16:23;41.50;;;23.70;;
10945;SDS011;5525;42.648;23.368;2022-12-07T05:18:50;38.72;;;23.45;;
10945;SDS011;5525;42.648;23.368;2022-12-07T05:21:17;40.63;;;23.67;;
10945;SDS011;5525;42.648;23.368;2022-12-07T05:23:47;36.30;;;22.15;;
10945;SDS011;5525;42.648;23.368;2022-12-07T05:26:17;35.22;;;22.20;;
10945;SDS011;5525;42.648;23.368;2022-12-07T05:28:50;41.97;;;24.92;;
10945;SDS011;5525;42.648;23.368;2022-12-07T05:31:17;45.72;;;26.75;;
10945;SDS011;5525;42.648;23.368;2022-12-07T05:33:45;45.85;;;26.45;;
10945;SDS011;5525;42.648;23.368;2022-12-07T05:36:13;42.17;;;25.42;;
10945;SDS011;5525;42.648;23.368;2022-12-07T05:38:41;42.90;;;25.67;;
10945;SDS011;5525;42.648;23.368;2022-12-07T05:41:11;42.10;;;25.52;;
10945;SDS011;5525;42.648;23.368;2022-12-07T05:43:56;39.00;;;24.67;;
10945;SDS011;5525;42.648;23.368;2022-12-07T05:46:26;41.42;;;23.25;;
10945;SDS011;5525;42.648;23.368;2022-12-07T05:48:53;48.60;;;24.42;;
10945;SDS011;5525;42.648;23.368;2022-12-07T05:51:20;43.08;;;24.52;;
10945;SDS011;5525;42.648;23.368;2022-12-07T05:53:48;40.03;;;24.00;;
10945;SDS011;5525;42.648;23.368;2022-12-07T05:56:17;42.20;;;23.88;;
10945;SDS011;5525;42.648;23.368;2022-12-07T05:58:44;40.65;;;23.35;;
10945;SDS011;5525;42.648;23.368;2022-12-07T06:01:30;41.60;;;23.98;;
10945;SDS011;5525;42.648;23.368;2022-12-07T06:03:58;41.08;;;23.25;;
10945;SDS011;5525;42.648;23.368;2022-12-07T06:06:26;40.53;;;23.95;;
10945;SDS011;5525;42.648;23.368;2022-12-07T06:08:55;40.78;;;24.00;;
10945;SDS011;5525;42.648;23.368;2022-12-07T06:11:28;40.88;;;25.42;;
10945;SDS011;5525;42.648;23.368;2022-12-07T06:14:12;41.72;;;24.73;;
10945;SDS011;5525;42.648;23.368;2022-12-07T06:16:42;40.15;;;23.13;;
10945;SDS011;5525;42.648;23.368;2022-12-07T06:19:09;57.42;;;27.88;;
10945;SDS011;5525;42.648;23.368;2022-12-07T06:21:37;50.42;;;27.27;;
10945;SDS011;5525;42.648;23.368;2022-12-07T06:24:04;44.72;;;26.52;;
10945;SDS011;5525;42.648;23.368;2022-12-07T06:26:35;48.03;;;27.55;;
10945;SDS011;5525;42.648;23.368;2022-12-07T06:29:03;42.42;;;25.08;;
10945;SDS011;5525;42.648;23.368;2022-12-07T06:31:35;45.03;;;25.45;;
10945;SDS011;5525;42.648;23.368;2022-12-07T06:34:05;40.50;;;24.20;;
10945;SDS011;5525;42.648;23.368;2022-12-07T06:36:34;44.47;;;24.15;;
10945;SDS011;5525;42.648;23.368;2022-12-07T06:39:02;39.78;;;23.58;;
10945;SDS011;5525;42.648;23.368;2022-12-07T06:41:30;36.97;;;23.02;;
10945;SDS011;5525;42.648;23.368;2022-12-07T06:43:58;35.70;;;22.50;;
10945;SDS011;5525;42.648;23.368;2022-12-07T06:46:25;37.65;;;23.48;;
10945;SDS011;5525;42.648;23.368;2022-12-07T06:48:54;37.17;;;21.88;;
10945;SDS011;5525;42.648;23.368;2022-12-07T06:51:24;50.53;;;28.48;;
10945;SDS011;5525;42.648;23.368;2022-12-07T06:53:55;51.83;;;30.75;;
10945;SDS011;5525;42.648;23.368;2022-12-07T06:56:25;50.63;;;28.08;;
10945;SDS011;5525;42.648;23.368;2022-12-07T06:58:53;42.17;;;25.63;;
10945;SDS011;5525;42.648;23.368;2022-12-07T07:01:22;47.05;;;27.13;;
10945;SDS011;5525;42.648;23.368;2022-12-07T07:03:52;45.05;;;26.40;;
10945;SDS011;5525;42.648;23.368;2022-12-07T07:06:19;46.47;;;25.10;;
10945;SDS011;5525;42.648;23.368;2022-12-07T07:08:51;43.22;;;25.85;;
10945;SDS011;5525;42.648;23.368;2022-12-07T07:11:19;42.33;;;26.20;;
10945;SDS011;5525;42.648;23.368;2022-12-07T07:13:46;43.88;;;26.33;;
10945;SDS011;5525;42.648;23.368;2022-12-07T07:16:14;37.00;;;22.85;;
10945;SDS011;5525;42.648;23.368;2022-12-07T07:18:41;41.28;;;23.98;;
10945;SDS011;5525;42.648;23.368;2022-12-07T07:21:08;41.25;;;25.02;;
10945;SDS011;5525;42.648;23.368;2022-12-07T07:23:35;36.30;;;22.17;;
10945;SDS011;5525;42.648;23.368;2022-12-07T07:26:04;36.22;;;23.50;;
10945;SDS011;5525;42.648;23.368;2022-12-07T07:28:30;44.08;;;23.52;;
10945;SDS011;5525;42.648;23.368;2022-12-07T07:30:58;43.20;;;24.67;;
10945;SDS011;5525;42.648;23.368;2022-12-07T07:33:25;44.72;;;24.88;;
10945;SDS011;5525;42.648;23.368;2022-12-07T07:35:52;53.42;;;26.65;;
10945;SDS011;5525;42.648;23.368;2022-12-07T07:38:19;43.85;;;25.60;;
10945;SDS011;5525;42.648;23.368;2022-12-07T07:40:46;44.33;;;26.35;;
10945;SDS011;5525;42.648;23.368;2022-12-07T07:43:15;48.25;;;25.02;;
10945;SDS011;5525;42.648;23.368;2022-12-07T07:45:43;50.35;;;25.83;;
10945;SDS011;5525;42.648;23.368;2022-12-07T07:48:10;44.53;;;24.80;;
10945;SDS011;5525;42.648;23.368;2022-12-07T07:50:39;39.97;;;23.77;;
10945;SDS011;5525;42.648;23.368;2022-12-07T07:53:06;43.25;;;23.95;;
10945;SDS011;5525;42.648;23.368;2022-12-07T07:55:33;40.33;;;23.48;;
10945;SDS011;5525;42.648;23.368;2022-12-07T07:58:03;41.45;;;22.33;;
10945;SDS011;5525;42.648;23.368;2022-12-07T08:00:32;37.67;;;22.15;;
10945;SDS011;5525;42.648;23.368;2022-12-07T08:02:59;44.78;;;23.73;;
10945;SDS011;5525;42.648;23.368;2022-12-07T08:05:26;42.92;;;24.45;;
10945;SDS011;5525;42.648;23.368;2022-12-07T08:07:53;39.03;;;22.08;;
10945;SDS011;5525;42.648;23.368;2022-12-07T08:10:20;36.47;;;20.83;;
10945;SDS011;5525;42.648;23.368;2022-12-07T08:12:47;36.75;;;21.73;;
10945;SDS011;5525;42.648;23.368;2022-12-07T08:15:36;35.00;;;21.30;;
10945;SDS011;5525;42.648;23.368;2022-12-07T08:18:06;38.72;;;21.00;;
10945;SDS011;5525;42.648;23.368;2022-12-07T08:20:34;35.17;;;20.50;;
10945;SDS011;5525;42.648;23.368;2022-12-07T08:23:03;31.98;;;20.60;;
10945;SDS011;5525;42.648;23.368;2022-12-07T08:25:31;41.55;;;21.63;;
10945;SDS011;5525;42.648;23.368;2022-12-07T08:28:00;38.92;;;21.92;;
10945;SDS011;5525;42.648;23.368;2022-12-07T08:30:27;33.42;;;19.63;;
10945;SDS011;5525;42.648;23.368;2022-12-07T08:32:56;35.67;;;19.88;;
10945;SDS011;5525;42.648;23.368;2022-12-07T08:35:24;37.85;;;20.23;;
10945;SDS011;5525;42.648;23.368;2022-12-07T08:37:51;32.72;;;17.83;;
10945;SDS011;5525;42.648;23.368;2022-12-07T08:40:20;34.45;;;20.15;;
10945;SDS011;5525;42.648;23.368;2022-12-07T08:42:50;36.42;;;20.38;;
10945;SDS011;5525;42.648;23.368;2022-12-07T08:45:17;31.42;;;20.27;;
10945;SDS011;5525;42.648;23.368;2022-12-07T08:47:46;35.75;;;20.50;;
10945;SDS011;5525;42.648;23.368;2022-12-07T08:50:23;40.30;;;21.20;;
10945;SDS011;5525;42.648;23.368;2022-12-07T08:52:52;35.30;;;20.80;;
10945;SDS011;5525;42.648;23.368;2022-12-07T08:55:23;35.13;;;20.98;;
10945;SDS011;5525;42.648;23.368;2022-12-07T08:57:52;35.90;;;20.92;;
10945;SDS011;5525;42.648;23.368;2022-12-07T09:00:20;33.45;;;20.55;;
10945;SDS011;5525;42.648;23.368;2022-12-07T09:02:47;33.67;;;19.92;;
10945;SDS011;5525;42.648;23.368;2022-12-07T09:05:19;31.08;;;19.75;;
10945;SDS011;5525;42.648;23.368;2022-12-07T09:07:48;34.50;;;20.52;;
10945;SDS011;5525;42.648;23.368;2022-12-07T09:10:18;37.28;;;20.67;;
10945;SDS011;5525;42.648;23.368;2022-12-07T09:12:46;34.85;;;19.48;;
10945;SDS011;5525;42.648;23.368;2022-12-07T09:15:13;31.83;;;19.13;;
10945;SDS011;5525;42.648;23.368;2022-12-07T09:17:40;31.80;;;18.65;;
10945;SDS011;5525;42.648;23.368;2022-12-07T09:20:07;32.10;;;19.73;;
10945;SDS011;5525;42.648;23.368;2022-12-07T09:22:34;31.63;;;18.88;;
10945;SDS011;5525;42.648;23.368;2022-12-07T09:25:06;32.25;;;20.00;;
10945;SDS011;5525;42.648;23.368;2022-12-07T09:27:33;33.08;;;20.35;;
10945;SDS011;5525;42.648;23.368;2022-12-07T09:30:04;32.30;;;19.25;;
10945;SDS011;5525;42.648;23.368;2022-12-07T09:32:31;33.65;;;21.00;;
10945;SDS011;5525;42.648;23.368;2022-12-07T09:34:59;38.03;;;19.88;;
10945;SDS011;5525;42.648;23.368;2022-12-07T09:37:26;41.25;;;20.42;;
10945;SDS011;5525;42.648;23.368;2022-12-07T09:40:00;39.90;;;22.10;;
10945;SDS011;5525;42.648;23.368;2022-12-07T09:42:41;39.70;;;20.38;;
10945;SDS011;5525;42.648;23.368;2022-12-07T09:45:11;35.38;;;19.50;;
10945;SDS011;5525;42.648;23.368;2022-12-07T09:47:45;35.80;;;21.38;;
10945;SDS011;5525;42.648;23.368;2022-12-07T09:50:13;34.45;;;20.08;;
10945;SDS011;5525;42.648;23.368;2022-12-07T09:52:41;33.20;;;20.45;;
10945;SDS011;5525;42.648;23.368;2022-12-07T09:55:13;36.10;;;21.13;;
10945;SDS011;5525;42.648;23.368;2022-12-07T09:57:43;34.65;;;19.73;;
10945;SDS011;5525;42.648;23.368;2022-12-07T10:00:12;35.53;;;21.33;;
10945;SDS011;5525;42.648;23.368;2022-12-07T10:02:42;39.22;;;20.98;;
10945;SDS011;5525;42.648;23.368;2022-12-07T10:05:12;33.72;;;19.35;;
10945;SDS011;5525;42.648;23.368;2022-12-07T10:07:41;32.83;;;19.27;;
10945;SDS011;5525;42.648;23.368;2022-12-07T10:10:13;35.42;;;20.73;;
10945;SDS011;5525;42.648;23.368;2022-12-07T10:12:53;32.65;;;20.42;;
10945;SDS011;5525;42.648;23.368;2022-12-07T10:15:23;34.70;;;19.27;;
10945;SDS011;5525;42.648;23.368;2022-12-07T10:18:15;28.95;;;18.55;;
10945;SDS011;5525;42.648;23.368;2022-12-07T10:21:03;29.98;;;19.60;;
10945;SDS011;5525;42.648;23.368;2022-12-07T10:23:45;31.13;;;18.27;;
10945;SDS011;5525;42.648;23.368;2022-12-07T10:26:27;30.17;;;18.50;;
10945;SDS011;5525;42.648;23.368;2022-12-07T10:28:59;30.45;;;19.00;;
10945;SDS011;5525;42.648;23.368;2022-12-07T10:31:30;35.88;;;18.15;;
10945;SDS011;5525;42.648;23.368;2022-12-07T10:33:57;30.40;;;18.05;;
10945;SDS011;5525;42.648;23.368;2022-12-07T10:36:26;32.75;;;18.70;;
10945;SDS011;5525;42.648;23.368;2022-12-07T10:39:01;30.25;;;17.83;;
10945;SDS011;5525;42.648;23.368;2022-12-07T10:41:33;28.42;;;18.55;;
10945;SDS011;5525;42.648;23.368;2022-12-07T10:44:02;35.95;;;20.00;;
10945;SDS011;5525;42.648;23.368;2022-12-07T10:46:34;26.40;;;17.73;;
10945;SDS011;5525;42.648;23.368;2022-12-07T10:49:15;25.90;;;17.33;;
10945;SDS011;5525;42.648;23.368;2022-12-07T10:52:05;31.00;;;17.02;;
10945;SDS011;5525;42.648;23.368;2022-12-07T10:54:40;23.85;;;15.70;;
10945;SDS011;5525;42.648;23.368;2022-12-07T10:57:33;28.98;;;16.17;;
10945;SDS011;5525;42.648;23.368;2022-12-07T11:00:13;31.52;;;17.48;;
10945;SDS011;5525;42.648;23.368;2022-12-07T11:02:59;23.98;;;15.65;;
10945;SDS011;5525;42.648;23.368;2022-12-07T11:05:46;27.27;;;15.77;;
10945;SDS011;5525;42.648;23.368;2022-12-07T11:08:20;27.15;;;14.93;;
10945;SDS011;5525;42.648;23.368;2022-12-07T11:10:59;25.08;;;14.80;;
10945;SDS011;5525;42.648;23.368;2022-12-07T11:13:37;20.65;;;13.38;;
10945;SDS011;5525;42.648;23.368;2022-12-07T11:16:21;28.85;;;16.92;;
10945;SDS011;5525;42.648;23.368;2022-12-07T11:19:15;29.88;;;16.25;;
10945;SDS011;5525;42.648;23.368;2022-12-07T11:21:55;29.63;;;16.42;;
10945;SDS011;5525;42.648;23.368;2022-12-07T11:24:25;30.92;;;16.17;;
10945;SDS011;5525;42.648;23.368;2022-12-07T11:27:08;27.52;;;16.42;;
10945;SDS011;5525;42.648;23.368;2022-12-07T11:29:46;27.35;;;16.20;;
10945;SDS011;5525;42.648;23.368;2022-12-07T11:32:29;24.67;;;16.42;;
10945;SDS011;5525;42.648;23.368;2022-12-07T11:35:10;26.42;;;17.08;;
10945;SDS011;5525;42.648;23.368;2022-12-07T11:37:45;26.92;;;16.90;;
10945;SDS011;5525;42.648;23.368;2022-12-07T11:40:15;29.52;;;17.25;;
10945;SDS011;5525;42.648;23.368;2022-12-07T11:42:49;32.58;;;16.85;;
10945;SDS011;5525;42.648;23.368;2022-12-07T11:45:20;30.35;;;16.88;;
10945;SDS011;5525;42.648;23.368;2022-12-07T11:47:54;28.30;;;16.75;;
10945;SDS011;5525;42.648;23.368;2022-12-07T11:50:27;25.13;;;16.75;;
10945;SDS011;5525;42.648;23.368;2022-12-07T11:53:01;37.50;;;17.95;;
10945;SDS011;5525;42.648;23.368;2022-12-07T11:55:32;26.92;;;17.38;;
10945;SDS011;5525;42.648;23.368;2022-12-07T11:58:14;30.33;;;17.13;;
10945;SDS011;5525;42.648;23.368;2022-12-07T12:00:49;34.03;;;18.15;;
10945;SDS011;5525;42.648;23.368;2022-12-07T12:03:25;28.63;;;16.70;;
10945;SDS011;5525;42.648;23.368;2022-12-07T12:05:58;33.35;;;17.58;;
10945;SDS011;5525;42.648;23.368;2022-12-07T12:08:26;25.50;;;16.48;;
10945;SDS011;5525;42.648;23.368;2022-12-07T12:10:59;28.15;;;16.48;;
10945;SDS011;5525;42.648;23.368;2022-12-07T12:13:39;36.67;;;17.20;;
10945;SDS011;5525;42.648;23.368;2022-12-07T12:16:30;32.72;;;17.25;;
10945;SDS011;5525;42.648;23.368;2022-12-07T12:19:18;27.65;;;16.23;;
10945;SDS011;5525;42.648;23.368;2022-12-07T12:21:54;29.73;;;18.13;;
10945;SDS011;5525;42.648;23.368;2022-12-07T12:24:25;29.02;;;17.13;;
10945;SDS011;5525;42.648;23.368;2022-12-07T12:27:01;29.60;;;17.92;;
10945;SDS011;5525;42.648;23.368;2022-12-07T12:29:32;29.38;;;17.13;;
10945;SDS011;5525;42.648;23.368;2022-12-07T12:32:06;28.05;;;16.48;;
10945;SDS011;5525;42.648;23.368;2022-12-07T12:34:42;34.90;;;16.75;;
10945;SDS011;5525;42.648;23.368;2022-12-07T12:37:41;29.30;;;17.67;;
10945;SDS011;5525;42.648;23.368;2022-12-07T12:58:44;28.63;;;15.13;;
10945;SDS011;5525;42.648;23.368;2022-12-07T13:07:15;29.00;;;15.02;;
10945;SDS011;5525;42.648;23.368;2022-12-07T13:10:23;25.83;;;15.35;;
10945;SDS011;5525;42.648;23.368;2022-12-07T13:22:37;19.85;;;13.27;;
10945;SDS011;5525;42.648;23.368;2022-12-07T13:25:10;26.45;;;13.13;;
10945;SDS011;5525;42.648;23.368;2022-12-07T13:27:39;20.67;;;13.60;;
10945;SDS011;5525;42.648;23.368;2022-12-07T13:30:14;20.90;;;13.50;;
10945;SDS011;5525;42.648;23.368;2022-12-07T13:32:42;20.45;;;12.25;;
10945;SDS011;5525;42.648;23.368;2022-12-07T13:35:27;19.52;;;13.10;;
10945;SDS011;5525;42.648;23.368;2022-12-07T13:37:56;21.95;;;13.57;;
10945;SDS011;5525;42.648;23.368;2022-12-07T13:40:24;23.60;;;13.60;;
10945;SDS011;5525;42.648;23.368;2022-12-07T13:42:57;21.48;;;13.98;;
10945;SDS011;5525;42.648;23.368;2022-12-07T13:45:25;23.45;;;13.57;;
10945;SDS011;5525;42.648;23.368;2022-12-07T13:48:14;20.25;;;12.95;;
10945;SDS011;5525;42.648;23.368;2022-12-07T13:50:52;24.73;;;13.30;;
10945;SDS011;5525;42.648;23.368;2022-12-07T13:53:23;19.80;;;12.00;;
10945;SDS011;5525;42.648;23.368;2022-12-07T13:55:55;19.73;;;11.50;;
10945;SDS011;5525;42.648;23.368;2022-12-07T13:58:23;18.75;;;11.65;;
10945;SDS011;5525;42.648;23.368;2022-12-07T14:00:52;21.77;;;11.80;;
10945;SDS011;5525;42.648;23.368;2022-12-07T14:03:23;20.77;;;12.95;;
10945;SDS011;5525;42.648;23.368;2022-12-07T14:06:19;21.52;;;12.65;;
10945;SDS011;5525;42.648;23.368;2022-12-07T14:09:16;24.10;;;12.82;;
10945;SDS011;5525;42.648;23.368;2022-12-07T14:11:47;36.28;;;13.27;;
10945;SDS011;5525;42.648;23.368;2022-12-07T14:14:18;22.58;;;13.60;;
10945;SDS011;5525;42.648;23.368;2022-12-07T14:16:55;26.67;;;13.18;;
10945;SDS011;5525;42.648;23.368;2022-12-07T14:19:41;38.20;;;14.63;;
10945;SDS011;5525;42.648;23.368;2022-12-07T14:22:18;21.02;;;13.25;;
10945;SDS011;5525;42.648;23.368;2022-12-07T14:24:49;26.40;;;13.50;;
10945;SDS011;5525;42.648;23.368;2022-12-07T14:27:19;25.20;;;13.02;;
10945;SDS011;5525;42.648;23.368;2022-12-07T14:29:55;30.98;;;12.82;;
10945;SDS011;5525;42.648;23.368;2022-12-07T14:32:24;30.65;;;17.70;;
10945;SDS011;5525;42.648;23.368;2022-12-07T14:34:58;36.10;;;14.80;;
10945;SDS011;5525;42.648;23.368;2022-12-07T14:37:27;29.33;;;14.95;;
10945;SDS011;5525;42.648;23.368;2022-12-07T14:39:58;23.40;;;13.52;;
10945;SDS011;5525;42.648;23.368;2022-12-07T14:42:27;23.85;;;12.90;;
10945;SDS011;5525;42.648;23.368;2022-12-07T14:45:00;27.75;;;14.10;;
10945;SDS011;5525;42.648;23.368;2022-12-07T14:47:27;27.75;;;14.20;;
10945;SDS011;5525;42.648;23.368;2022-12-07T14:49:58;30.35;;;13.73;;
10945;SDS011;5525;42.648;23.368;2022-12-07T14:52:27;42.33;;;16.55;;
10945;SDS011;5525;42.648;23.368;2022-12-07T14:54:58;39.42;;;15.50;;
10945;SDS011;5525;42.648;23.368;2022-12-07T14:57:26;28.73;;;14.80;;
10945;SDS011;5525;42.648;23.368;2022-12-07T14:59:54;33.13;;;14.35;;
10945;SDS011;5525;42.648;23.368;2022-12-07T15:02:28;33.75;;;14.40;;
10945;SDS011;5525;42.648;23.368;2022-12-07T15:05:01;28.25;;;13.75;;
10945;SDS011;5525;42.648;23.368;2022-12-07T15:07:29;27.00;;;14.50;;
10945;SDS011;5525;42.648;23.368;2022-12-07T15:10:14;31.95;;;15.95;;
10945;SDS011;5525;42.648;23.368;2022-12-07T15:12:44;28.80;;;15.30;;
10945;SDS011;5525;42.648;23.368;2022-12-07T15:15:12;32.72;;;14.93;;
10945;SDS011;5525;42.648;23.368;2022-12-07T15:17:40;34.10;;;16.02;;
10945;SDS011;5525;42.648;23.368;2022-12-07T15:20:08;34.83;;;16.02;;
10945;SDS011;5525;42.648;23.368;2022-12-07T15:22:39;25.10;;;13.88;;
10945;SDS011;5525;42.648;23.368;2022-12-07T15:25:07;26.50;;;13.65;;